Time;durP1;ratioP1;P1;durP2;ratioP2;P2;SDS_P1;SDS_P2;PMS_P1;PMS_P2;Temp;Humidity;BMP_temperature;BMP_pressure;BME280_temperature;BME280_humidity;BME280_pressure;Samples;Min_cycle;Max_cycle;Signal;HPM_P1;HPM_P2
2022/07/02 00:02:12;;;;;;;7.57;5.10;;;;;;;15.21;44.16;100466.72;5032829;28;20102;-56
2022/07/02 00:04:43;;;;;;;10.07;5.28;;;;;;;15.22;44.10;100468.44;5033981;28;20036;-55
2022/07/02 00:07:09;;;;;;;7.95;5.10;;;;;;;15.14;44.54;100466.41;5034334;28;20112;-54
2022/07/02 00:09:36;;;;;;;12.35;5.32;;;;;;;15.13;44.58;100469.22;5033682;28;20493;-50
2022/07/02 00:12:02;;;;;;;15.45;5.18;;;;;;;15.09;44.79;100475.91;5033750;28;20029;-56
2022/07/02 00:14:28;;;;;;;13.18;5.30;;;;;;;15.06;44.93;100477.88;5032747;28;20396;-54
2022/07/02 00:16:54;;;;;;;9.23;5.53;;;;;;;15.03;44.88;100472.75;5033767;28;20036;-53
2022/07/02 00:19:21;;;;;;;9.57;5.40;;;;;;;15.01;45.17;100477.44;5033912;28;20029;-56
2022/07/02 00:21:47;;;;;;;11.25;5.30;;;;;;;14.97;45.41;100476.03;5033623;28;20029;-54
2022/07/02 00:24:13;;;;;;;14.38;6.05;;;;;;;14.92;45.62;100462.94;5033438;28;20048;-52
2022/07/02 00:26:40;;;;;;;11.50;5.00;;;;;;;14.93;45.58;100471.88;5032684;28;20034;-54
2022/07/02 00:29:12;;;;;;;10.82;5.20;;;;;;;14.89;45.83;100475.81;5033659;28;20374;-53
2022/07/02 00:31:38;;;;;;;12.13;5.60;;;;;;;14.88;45.74;100477.69;5032174;28;20037;-54
2022/07/02 00:34:05;;;;;;;10.65;5.40;;;;;;;14.83;45.71;100476.38;5032981;28;20541;-55
2022/07/02 00:36:32;;;;;;;14.60;5.30;;;;;;;14.81;45.83;100471.09;5033377;28;20034;-52
2022/07/02 00:38:58;;;;;;;11.50;6.10;;;;;;;14.81;46.33;100481.88;5048893;28;20316;-50
2022/07/02 00:41:25;;;;;;;8.68;5.32;;;;;;;14.82;46.39;100482.75;5032842;28;20476;-53
2022/07/02 00:43:52;;;;;;;10.35;5.60;;;;;;;14.78;46.53;100485.72;5032854;28;20163;-52
2022/07/02 00:46:19;;;;;;;14.85;5.85;;;;;;;14.68;46.78;100470.47;5033462;28;20037;-50
2022/07/02 00:48:44;;;;;;;11.82;5.40;;;;;;;14.76;47.01;100492.22;5033658;28;20358;-54
2022/07/02 00:51:10;;;;;;;8.73;5.15;;;;;;;14.72;46.91;100488.97;5033163;28;20040;-54
2022/07/02 00:53:36;;;;;;;9.65;5.47;;;;;;;14.50;47.04;100449.53;5032668;28;20106;-52
2022/07/02 00:56:02;;;;;;;8.63;5.38;;;;;;;14.71;47.17;100487.28;5033125;28;20032;-55
2022/07/02 00:58:30;;;;;;;10.45;5.20;;;;;;;14.73;47.07;100493.38;5032078;28;20033;-56
2022/07/02 01:00:56;;;;;;;8.32;5.38;;;;;;;14.69;47.27;100488.34;5032548;28;20060;-56
2022/07/02 01:03:23;;;;;;;12.35;5.65;;;;;;;14.64;47.27;100478.81;5032243;28;20029;-55
2022/07/02 01:05:51;;;;;;;12.13;5.88;;;;;;;14.71;47.06;100492.66;5032586;28;20032;-55
2022/07/02 01:11:05;;;;;;;20.15;6.03;;;;;;;14.68;47.87;100497.41;5031934;28;20041;-56
2022/07/02 01:13:32;;;;;;;11.32;5.57;;;;;;;14.69;47.50;100493.72;5032141;28;20386;-54
2022/07/02 01:15:58;;;;;;;14.75;5.93;;;;;;;14.67;47.86;100499.25;5030412;28;20029;-54
2022/07/02 01:18:24;;;;;;;15.65;5.82;;;;;;;14.68;47.84;100500.94;5031700;28;20025;-56
2022/07/02 01:20:49;;;;;;;11.50;6.65;;;;;;;14.70;47.76;100507.06;5031979;28;20033;-53
2022/07/02 01:23:15;;;;;;;15.18;6.68;;;;;;;14.73;47.72;100509.53;5032394;28;20060;-55
2022/07/02 01:25:47;;;;;;;12.63;6.22;;;;;;;14.75;47.77;100494.09;5032100;28;20033;-53
2022/07/02 01:28:13;;;;;;;21.70;7.07;;;;;;;14.74;47.96;100495.06;5031341;28;20056;-49
2022/07/02 01:30:39;;;;;;;17.20;7.07;;;;;;;14.63;48.01;100478.94;5032245;28;20041;-53
2022/07/02 01:33:04;;;;;;;16.40;7.20;;;;;;;14.65;47.94;100482.34;5030666;28;20069;-51
2022/07/02 01:35:30;;;;;;;16.38;7.00;;;;;;;14.84;47.92;100505.91;5031007;28;20037;-50
2022/07/02 01:37:55;;;;;;;20.58;7.07;;;;;;;14.55;47.88;100455.34;5032224;28;20033;-54
2022/07/02 01:40:21;;;;;;;14.90;6.70;;;;;;;14.87;47.90;100502.06;5031951;28;20026;-54
2022/07/02 01:42:46;;;;;;;17.48;7.20;;;;;;;14.82;47.85;100490.84;5031942;28;20311;-56
2022/07/02 01:45:12;;;;;;;18.80;6.93;;;;;;;14.96;47.82;100509.38;5031107;28;20381;-56
2022/07/02 01:47:37;;;;;;;17.88;7.35;;;;;;;15.00;47.95;100509.94;5031957;28;20401;-53
2022/07/02 01:50:03;;;;;;;21.90;7.43;;;;;;;15.06;47.73;100514.75;5031602;28;20064;-51
2022/07/02 01:52:29;;;;;;;19.30;7.18;;;;;;;15.09;47.53;100513.66;5031985;28;20104;-54
2022/07/02 01:54:54;;;;;;;18.13;7.88;;;;;;;15.16;47.24;100518.38;5032246;28;20025;-54
2022/07/02 01:57:20;;;;;;;19.85;7.35;;;;;;;15.21;46.83;100524.19;5031322;28;20064;-57
2022/07/02 01:59:45;;;;;;;24.33;7.68;;;;;;;15.27;46.64;100521.94;5047230;28;20056;-50
2022/07/02 02:02:11;;;;;;;19.50;8.27;;;;;;;15.31;46.53;100520.66;5031719;28;20029;-52
2022/07/02 02:04:36;;;;;;;15.85;7.55;;;;;;;15.45;46.20;100527.56;5032059;28;20033;-56
2022/07/02 02:07:03;;;;;;;14.32;7.25;;;;;;;15.51;46.21;100527.00;5030393;28;20389;-56
2022/07/02 02:09:29;;;;;;;17.75;7.93;;;;;;;15.58;45.66;100530.81;5028946;28;20401;-55
2022/07/02 02:11:54;;;;;;;20.05;8.10;;;;;;;15.66;45.63;100535.53;5031732;28;20143;-55
2022/07/02 02:14:20;;;;;;;20.90;7.70;;;;;;;15.60;45.32;100509.94;5031809;28;20112;-63
2022/07/02 02:16:45;;;;;;;19.08;7.90;;;;;;;15.83;45.20;100538.53;5031557;28;20461;-54
2022/07/02 02:19:11;;;;;;;17.15;7.07;;;;;;;15.91;44.59;100545.00;5031013;28;20357;-61
2022/07/02 02:21:36;;;;;;;17.63;7.40;;;;;;;16.04;44.42;100538.44;5031498;28;20033;-55
2022/07/02 02:24:02;;;;;;;17.58;6.88;;;;;;;16.02;44.38;100513.41;5031213;28;20025;-55
2022/07/02 02:26:28;;;;;;;18.35;7.38;;;;;;;16.35;44.18;100538.25;5031372;28;20038;-51
2022/07/02 02:28:54;;;;;;;23.42;6.95;;;;;;;16.57;43.68;100526.28;5031061;28;20045;-49
2022/07/02 02:31:20;;;;;;;14.95;7.57;;;;;;;16.84;43.21;100532.75;5030699;28;20033;-51
2022/07/02 02:33:46;;;;;;;15.27;6.85;;;;;;;17.12;42.35;100527.41;5031347;28;20124;-57
2022/07/02 02:36:11;;;;;;;14.90;6.82;;;;;;;17.35;42.04;100527.84;5030888;28;20526;-50
2022/07/02 02:38:37;;;;;;;15.27;6.95;;;;;;;17.62;41.27;100533.41;5030861;28;20444;-54
2022/07/02 02:41:06;;;;;;;13.48;6.72;;;;;;;17.87;40.96;100539.94;5031246;28;20087;-55
2022/07/02 02:43:33;;;;;;;12.52;6.55;;;;;;;18.07;40.51;100545.22;5031237;28;20030;-51
2022/07/02 02:45:59;;;;;;;12.50;6.95;;;;;;;18.18;39.87;100545.00;5030875;28;20025;-50
2022/07/02 02:48:25;;;;;;;11.88;6.47;;;;;;;18.19;39.98;100534.97;5030381;28;20034;-53
2022/07/02 02:50:50;;;;;;;14.77;6.22;;;;;;;18.15;39.98;100534.47;5031237;28;20046;-55
2022/07/02 02:53:16;;;;;;;9.32;5.85;;;;;;;18.08;39.70;100527.94;5030608;28;20021;-54
2022/07/02 02:55:41;;;;;;;16.15;6.78;;;;;;;18.08;40.05;100539.66;5030187;28;20193;-52
2022/07/02 02:58:07;;;;;;;11.25;6.35;;;;;;;18.14;39.30;100527.34;5029964;28;20032;-56
2022/07/02 03:00:32;;;;;;;10.15;5.93;;;;;;;18.21;38.86;100514.03;5030930;28;20029;-58
2022/07/02 03:02:58;;;;;;;14.45;5.80;;;;;;;18.50;38.37;100529.97;5030664;28;20029;-54
2022/07/02 03:05:23;;;;;;;9.15;5.30;;;;;;;18.64;37.63;100500.59;5030237;28;20069;-67
2022/07/02 03:07:49;;;;;;;13.60;6.10;;;;;;;19.10;37.13;100513.91;5029417;28;20037;-53
2022/07/02 03:10:14;;;;;;;12.43;6.20;;;;;;;19.47;36.11;100519.97;5030770;28;20037;-53
2022/07/02 03:12:39;;;;;;;9.90;5.38;;;;;;;19.86;35.30;100523.97;5029131;28;20037;-53
2022/07/02 03:15:06;;;;;;;13.50;6.00;;;;;;;20.25;34.51;100519.75;5030290;28;20371;-54
2022/07/02 03:17:31;;;;;;;7.60;5.25;;;;;;;20.54;33.54;100516.50;5030599;28;20029;-53
2022/07/02 03:19:56;;;;;;;21.30;6.07;;;;;;;20.83;33.16;100522.44;5030291;28;20117;-57
2022/07/02 03:22:22;;;;;;;14.77;5.88;;;;;;;21.11;32.45;100520.16;5030800;28;20038;-54
2022/07/02 03:24:47;;;;;;;8.30;5.13;;;;;;;21.32;32.21;100513.22;5030890;28;20029;-54
2022/07/02 03:27:13;;;;;;;11.57;5.28;;;;;;;21.52;31.20;100505.47;5029639;28;20034;-53
2022/07/02 03:29:39;;;;;;;10.02;5.00;;;;;;;21.82;30.70;100519.28;5030097;28;20044;-51
2022/07/02 03:32:04;;;;;;;8.30;4.85;;;;;;;21.85;30.14;100496.25;5030861;28;20116;-52
2022/07/02 03:34:30;;;;;;;7.22;4.75;;;;;;;22.07;29.59;100500.88;5030939;28;20397;-56
2022/07/02 03:36:56;;;;;;;8.18;4.82;;;;;;;22.50;29.03;100524.88;5033946;28;20042;-64
2022/07/02 03:39:21;;;;;;;8.10;5.00;;;;;;;22.82;28.55;100521.13;5033453;28;20055;-57
2022/07/02 03:41:47;;;;;;;9.02;4.07;;;;;;;23.24;27.80;100525.09;5034605;28;20492;-56
2022/07/02 03:44:12;;;;;;;11.10;4.85;;;;;;;23.63;27.24;100523.91;5033981;28;20029;-55
2022/07/02 03:46:37;;;;;;;11.27;4.80;;;;;;;24.06;26.87;100533.19;5034211;28;20025;-51
2022/07/02 03:49:03;;;;;;;5.82;4.32;;;;;;;24.69;25.92;100526.13;5029528;28;20033;-57
2022/07/02 03:51:29;;;;;;;9.60;4.18;;;;;;;25.21;24.95;100537.63;5014632;28;20034;-56
2022/07/02 03:53:54;;;;;;;7.82;4.13;;;;;;;25.59;24.32;100531.69;5014744;28;20034;-57
2022/07/02 03:56:20;;;;;;;12.20;4.15;;;;;;;26.03;23.98;100539.56;5014400;28;20384;-53
2022/07/02 03:58:45;;;;;;;9.05;4.53;;;;;;;26.40;23.21;100537.31;5029074;28;20911;-57
2022/07/02 04:01:11;;;;;;;6.47;4.20;;;;;;;26.48;22.76;100512.38;5034183;28;20483;-57
2022/07/02 04:03:36;;;;;;;7.00;3.90;;;;;;;27.05;22.32;100541.25;5034029;28;20075;-56
2022/07/02 04:06:02;;;;;;;12.65;4.70;;;;;;;27.52;21.73;100538.38;5034273;28;20470;-57
2022/07/02 04:08:28;;;;;;;7.20;4.10;;;;;;;27.91;21.17;100536.44;5034338;28;20135;-53
2022/07/02 04:10:53;;;;;;;7.90;4.13;;;;;;;28.48;20.49;100537.53;5034334;28;20128;-56
2022/07/02 04:13:19;;;;;;;10.25;4.65;;;;;;;29.01;19.90;100544.44;5033919;28;20064;-55
2022/07/02 04:15:45;;;;;;;9.05;4.70;;;;;;;29.54;19.44;100547.66;5034129;28;20358;-53
2022/07/02 04:18:10;;;;;;;8.93;4.35;;;;;;;30.34;18.41;100544.78;5033780;28;20135;-53
2022/07/02 04:20:36;;;;;;;8.07;4.70;;;;;;;31.15;18.02;100544.19;5033561;28;20029;-51
2022/07/02 04:23:01;;;;;;;7.00;4.28;;;;;;;32.15;16.51;100537.56;5033557;28;20030;-49
2022/07/02 04:25:28;;;;;;;6.57;3.97;;;;;;;32.87;15.45;100537.84;5033474;28;20037;-57
2022/07/02 04:27:54;;;;;;;7.82;3.63;;;;;;;33.12;14.80;100530.16;5033631;28;20405;-54
2022/07/02 04:30:20;;;;;;;5.20;3.65;;;;;;;33.42;14.75;100546.38;5033205;28;20052;-50
2022/07/02 04:32:46;;;;;;;5.90;3.95;;;;;;;33.37;14.54;100537.94;5033351;28;20037;-52
2022/07/02 04:35:11;;;;;;;7.68;3.40;;;;;;;33.42;14.45;100545.50;5033219;28;20473;-54
2022/07/02 04:37:37;;;;;;;7.38;3.75;;;;;;;33.70;14.37;100541.69;5033150;28;20112;-55
2022/07/02 04:40:04;;;;;;;3.88;3.45;;;;;;;34.14;13.78;100532.38;5033478;28;20109;-54
2022/07/02 04:42:29;;;;;;;4.78;3.40;;;;;;;34.70;12.90;100525.56;5048386;28;20542;-58
2022/07/02 04:44:55;;;;;;;6.95;3.47;;;;;;;34.85;13.01;100532.34;5033285;28;20021;-54
2022/07/02 04:47:21;;;;;;;6.22;3.58;;;;;;;35.42;12.61;100532.59;5032487;28;20029;-54
2022/07/02 04:49:46;;;;;;;5.10;3.35;;;;;;;36.42;11.78;100518.53;5032852;28;20041;-54
2022/07/02 04:52:12;;;;;;;5.47;3.67;;;;;;;37.17;11.26;100528.16;5033037;28;20124;-54
2022/07/02 04:54:38;;;;;;;6.05;3.25;;;;;;;37.57;10.87;100520.66;5033088;28;20037;-54
2022/07/02 04:57:03;;;;;;;17.50;3.97;;;;;;;38.07;10.79;100516.16;5032643;28;20442;-55
2022/07/02 04:59:29;;;;;;;8.20;3.63;;;;;;;38.05;10.40;100516.44;5032813;28;20489;-58
2022/07/02 05:01:55;;;;;;;6.72;3.42;;;;;;;38.19;10.88;100513.78;5033054;28;20038;-51
2022/07/02 05:04:20;;;;;;;4.80;3.50;;;;;;;38.61;10.56;100525.47;5032826;28;20120;-55
2022/07/02 05:06:46;;;;;;;5.07;3.72;;;;;;;39.02;9.99;100497.00;5032666;28;20053;-52
2022/07/02 05:09:11;;;;;;;6.30;3.63;;;;;;;39.89;9.46;100512.88;5032216;28;20065;-51
2022/07/02 05:11:37;;;;;;;6.00;3.70;;;;;;;40.19;9.17;100517.13;5032381;28;20466;-55
2022/07/02 05:14:02;;;;;;;4.28;3.88;;;;;;;41.07;8.78;100508.19;5032856;28;20072;-54
2022/07/02 05:16:28;;;;;;;3.83;3.40;;;;;;;41.64;7.89;100484.47;5033106;28;20039;-52
2022/07/02 05:18:54;;;;;;;4.32;3.92;;;;;;;41.89;8.17;100514.75;5032550;28;20091;-51
2022/07/02 05:21:19;;;;;;;3.95;3.55;;;;;;;41.80;8.17;100516.69;5032817;28;20034;-53
2022/07/02 05:23:44;;;;;;;4.75;3.42;;;;;;;42.01;7.88;100508.53;5032417;28;20461;-51
2022/07/02 05:26:10;;;;;;;3.83;3.30;;;;;;;42.65;7.50;100514.22;5014792;28;20030;-54
2022/07/02 05:28:36;;;;;;;4.20;3.50;;;;;;;43.27;7.05;100518.88;5032343;28;20046;-53
2022/07/02 05:31:01;;;;;;;3.85;3.50;;;;;;;43.22;6.62;100501.31;5032229;28;20400;-64
2022/07/02 05:33:27;;;;;;;3.92;3.25;;;;;;;42.52;7.01;100507.56;5032412;28;20083;-51
2022/07/02 05:35:52;;;;;;;3.58;3.05;;;;;;;42.38;7.08;100514.06;5031319;28;20075;-51
2022/07/02 05:38:18;;;;;;;5.93;3.55;;;;;;;42.28;7.07;100509.56;5031503;28;20342;-54
2022/07/02 05:40:43;;;;;;;3.67;3.38;;;;;;;42.35;7.24;100486.59;5031896;28;20449;-54
2022/07/02 05:43:09;;;;;;;5.53;3.63;;;;;;;42.61;7.08;100505.59;5032279;28;20113;-54
2022/07/02 05:45:34;;;;;;;5.82;3.85;;;;;;;42.35;7.28;100497.84;5032473;28;20029;-54
2022/07/02 05:48:00;;;;;;;4.65;3.78;;;;;;;42.78;7.09;100493.56;5031574;28;20101;-53
2022/07/02 05:50:25;;;;;;;5.97;3.83;;;;;;;43.43;7.10;100504.34;5031586;28;20392;-55
2022/07/02 05:52:51;;;;;;;8.43;3.80;;;;;;;44.16;6.50;100500.00;5032270;28;20461;-56
2022/07/02 05:55:16;;;;;;;4.80;3.53;;;;;;;44.63;6.55;100495.50;5031739;28;20578;-55
2022/07/02 05:57:42;;;;;;;9.80;4.20;;;;;;;44.88;6.09;100496.56;5031347;28;20488;-54
2022/07/02 06:00:10;;;;;;;4.32;3.88;;;;;;;45.26;5.80;100500.47;5031661;28;20037;-54
2022/07/02 06:02:36;;;;;;;4.28;3.65;;;;;;;45.48;5.39;100490.84;5031531;28;20449;-54
2022/07/02 06:07:38;;;;;;;4.10;3.70;;;;;;;45.59;5.62;100502.53;5032343;28;20104;-52
2022/07/02 06:07:51;;;;;;;8.02;4.18;;;;;;;46.09;5.37;100506.41;5030739;28;20033;-57
2022/07/02 06:10:19;;;;;;;4.03;3.63;;;;;;;46.70;5.10;100506.88;5031336;28;20064;-51
2022/07/02 06:12:47;;;;;;;6.85;3.65;;;;;;;46.92;4.79;100505.56;5030534;28;20033;-53
2022/07/02 06:15:13;;;;;;;4.70;3.33;;;;;;;46.42;5.11;100484.88;5031654;28;20033;-52
2022/07/02 06:17:38;;;;;;;4.85;3.75;;;;;;;46.06;5.05;100481.63;5030731;28;20385;-53
2022/07/02 06:20:04;;;;;;;5.70;3.38;;;;;;;46.08;5.02;100479.28;5031375;28;20035;-60
2022/07/02 06:22:30;;;;;;;3.83;3.38;;;;;;;46.66;4.40;100481.25;5031815;28;20029;-56
2022/07/02 06:24:55;;;;;;;3.72;3.38;;;;;;;47.36;4.01;100470.06;5030378;28;20049;-52
2022/07/02 06:27:21;;;;;;;6.25;3.80;;;;;;;47.94;3.82;100480.19;5029872;28;20132;-53
2022/07/02 06:29:48;;;;;;;6.43;3.30;;;;;;;48.03;3.81;100486.59;5030975;28;20048;-52
2022/07/02 06:32:16;;;;;;;4.72;3.40;;;;;;;47.72;4.04;100480.44;5031513;28;20057;-51
2022/07/02 06:34:42;;;;;;;7.13;3.40;;;;;;;48.41;3.86;100473.78;5030981;28;20033;-53
2022/07/02 06:37:08;;;;;;;3.50;3.20;;;;;;;48.16;3.35;100475.13;5030467;28;20037;-55
2022/07/02 06:39:33;;;;;;;3.78;3.30;;;;;;;49.04;3.41;100474.03;5031286;28;20473;-56
2022/07/02 06:44:43;;;;;;;5.60;3.28;;;;;;;49.65;2.88;100468.84;5029983;28;20029;-55
2022/07/02 06:47:08;;;;;;;4.38;3.30;;;;;;;48.61;3.31;100471.00;5030726;28;20099;-55
2022/07/02 06:49:34;;;;;;;4.38;3.47;;;;;;;48.18;3.90;100461.38;5030176;28;20121;-51
2022/07/02 06:51:59;;;;;;;4.03;3.63;;;;;;;48.55;3.69;100463.97;5030643;28;20429;-55
2022/07/02 06:54:25;;;;;;;6.95;3.20;;;;;;;49.08;3.80;100462.75;5030364;28;20832;-52
2022/07/02 06:56:50;;;;;;;4.03;3.72;;;;;;;49.81;2.66;100463.03;5030240;28;20052;-51
2022/07/02 06:59:16;;;;;;;4.93;3.47;;;;;;;50.24;3.03;100480.09;5029911;28;20029;-54
2022/07/02 07:01:41;;;;;;;5.65;3.80;;;;;;;49.80;3.39;100475.63;5030677;28;20030;-50
2022/07/02 07:04:07;;;;;;;3.72;3.42;;;;;;;50.71;2.86;100476.41;5029243;28;20029;-60
2022/07/02 07:06:36;;;;;;;3.60;3.40;;;;;;;51.69;2.41;100472.81;5030405;28;20555;-56
2022/07/02 07:09:02;;;;;;;4.80;3.30;;;;;;;51.91;2.58;100473.03;5030370;28;20473;-52
2022/07/02 07:11:28;;;;;;;3.35;3.05;;;;;;;51.63;2.53;100462.94;5030125;28;20025;-55
2022/07/02 07:13:53;;;;;;;4.07;3.63;;;;;;;51.38;2.63;100457.78;5030479;28;20034;-55
2022/07/02 07:16:19;;;;;;;5.15;3.70;;;;;;;51.81;2.48;100448.88;5030530;28;20079;-52
2022/07/02 07:19:05;;;;;;;5.78;3.55;;;;;;;51.36;2.45;100451.63;5030055;28;20029;-51
2022/07/02 07:21:34;;;;;;;4.15;3.75;;;;;;;51.68;2.21;100459.78;5030340;28;20057;-57
2022/07/02 07:24:00;;;;;;;3.95;3.65;;;;;;;51.92;2.18;100449.00;5030421;28;20399;-54
2022/07/02 07:26:26;;;;;;;3.67;3.38;;;;;;;51.68;2.46;100442.66;5030197;28;20040;-53
2022/07/02 07:28:52;;;;;;;3.92;3.63;;;;;;;51.05;2.13;100451.66;5029952;28;20057;-51
2022/07/02 07:31:20;;;;;;;3.42;3.22;;;;;;;51.84;1.95;100445.25;5030506;28;20045;-55
2022/07/02 07:33:49;;;;;;;3.63;3.30;;;;;;;52.46;1.77;100440.06;5030321;28;20453;-56
2022/07/02 07:36:15;;;;;;;4.93;3.97;;;;;;;52.44;1.71;100428.22;5029772;28;20029;-53
2022/07/02 07:38:40;;;;;;;4.22;3.90;;;;;;;52.10;2.02;100444.28;5029837;28;20104;-55
2022/07/02 07:41:06;;;;;;;4.38;3.75;;;;;;;52.45;1.77;100436.38;5030763;28;20036;-57
2022/07/02 07:43:32;;;;;;;4.10;3.80;;;;;;;52.55;1.36;100437.66;5029873;28;20034;-53
2022/07/02 07:45:57;;;;;;;4.10;3.75;;;;;;;52.49;1.64;100439.28;5029747;28;20477;-52
2022/07/02 07:48:23;;;;;;;6.22;3.30;;;;;;;52.35;1.69;100425.72;5030103;28;20037;-55
2022/07/02 07:50:50;;;;;;;6.18;4.43;;;;;;;52.21;1.88;100434.97;5030216;28;20496;-53
2022/07/02 07:53:15;;;;;;;3.72;3.53;;;;;;;52.11;1.63;100425.94;5029884;28;20172;-57
2022/07/02 07:55:41;;;;;;;4.22;3.85;;;;;;;51.59;1.89;100405.00;5030064;28;20436;-53
2022/07/02 07:58:07;;;;;;;4.05;3.75;;;;;;;52.72;1.85;100432.50;5030825;28;20040;-52
2022/07/02 08:00:32;;;;;;;8.23;3.80;;;;;;;52.33;1.67;100428.97;5030203;28;20485;-53
2022/07/02 08:02:58;;;;;;;4.63;4.32;;;;;;;51.45;2.06;100423.63;5029847;28;20053;-52
2022/07/02 08:05:24;;;;;;;4.38;3.97;;;;;;;51.38;2.42;100432.13;5029872;28;20375;-52
2022/07/02 08:07:50;;;;;;;5.97;3.70;;;;;;;51.30;2.17;100434.06;5029579;28;20138;-52
2022/07/02 08:10:16;;;;;;;5.05;4.05;;;;;;;50.06;2.29;100431.38;5030313;28;20029;-52
2022/07/02 08:12:41;;;;;;;9.25;3.83;;;;;;;49.11;3.11;100407.97;5030051;28;20079;-53
2022/07/02 08:15:08;;;;;;;5.00;3.78;;;;;;;49.39;2.92;100424.00;5028894;28;20057;-53
2022/07/02 08:17:34;;;;;;;3.75;3.45;;;;;;;49.70;3.00;100413.66;5029738;28;20034;-56
2022/07/02 08:20:02;;;;;;;4.15;3.53;;;;;;;49.44;2.96;100408.66;5030745;28;20033;-53
2022/07/02 08:22:28;;;;;;;3.60;3.30;;;;;;;48.80;2.74;100407.75;5033138;28;20034;-57
2022/07/02 08:24:54;;;;;;;4.15;3.45;;;;;;;47.42;3.52;100409.91;5032742;28;20079;-54
2022/07/02 08:27:19;;;;;;;5.53;2.90;;;;;;;45.02;4.88;100400.28;5032977;28;20029;-52
2022/07/02 08:29:45;;;;;;;4.28;3.22;;;;;;;41.97;6.47;100409.09;5034262;28;20053;-55
2022/07/02 08:32:11;;;;;;;4.90;3.47;;;;;;;39.00;8.04;100406.88;5034396;28;20422;-61
2022/07/02 08:34:36;;;;;;;4.18;3.40;;;;;;;36.53;9.11;100403.09;5034215;28;20025;-53
2022/07/02 08:37:02;;;;;;;8.82;3.33;;;;;;;34.49;10.92;100407.88;5033729;28;20039;-54
2022/07/02 08:39:27;;;;;;;3.45;3.15;;;;;;;32.92;12.10;100406.75;5033153;28;20052;-55
2022/07/02 08:41:54;;;;;;;4.78;3.17;;;;;;;31.40;13.22;100382.59;5033154;28;20120;-53
2022/07/02 08:44:21;;;;;;;5.68;3.38;;;;;;;30.33;14.50;100411.38;5032896;28;20034;-56
2022/07/02 08:46:48;;;;;;;7.78;3.08;;;;;;;29.45;15.64;100398.19;5032339;28;20033;-49
2022/07/02 08:49:18;;;;;;;4.28;3.10;;;;;;;28.99;16.33;100403.25;5032276;28;20033;-50
2022/07/02 08:51:58;;;;;;;5.47;3.30;;;;;;;28.54;16.66;100404.41;5033004;28;20035;-62
2022/07/02 08:54:24;;;;;;;5.68;3.20;;;;;;;28.14;16.75;100397.38;5031502;28;20032;-53
2022/07/02 08:56:50;;;;;;;4.70;3.05;;;;;;;27.92;17.18;100399.72;5032416;28;20037;-56
2022/07/02 08:59:17;;;;;;;4.65;3.15;;;;;;;27.62;17.66;100395.72;5027576;28;20052;-57
2022/07/02 09:01:45;;;;;;;3.90;3.22;;;;;;;27.41;17.73;100391.41;5012985;28;20030;-58
2022/07/02 09:04:13;;;;;;;5.25;3.35;;;;;;;27.34;17.72;100387.84;5013297;28;20033;-53
2022/07/02 09:06:40;;;;;;;5.35;3.38;;;;;;;27.05;18.92;100373.63;5021890;28;20034;-48
2022/07/02 09:09:06;;;;;;;6.25;3.45;;;;;;;26.82;18.96;100357.69;5032027;28;20082;-51
2022/07/02 09:11:31;;;;;;;5.85;3.53;;;;;;;26.72;18.73;100378.19;5032429;28;20034;-57
2022/07/02 09:13:57;;;;;;;4.55;3.30;;;;;;;26.63;18.96;100383.09;5030848;28;20029;-52
2022/07/02 09:16:22;;;;;;;4.43;3.08;;;;;;;26.54;19.16;100378.91;5032390;28;20417;-54
2022/07/02 09:18:48;;;;;;;4.88;3.10;;;;;;;26.63;18.53;100376.75;5047754;28;20520;-53
2022/07/02 09:21:13;;;;;;;8.30;3.25;;;;;;;26.33;19.10;100366.31;5031961;28;20040;-50
2022/07/02 09:23:50;;;;;;;4.65;3.08;;;;;;;26.45;18.86;100364.56;5031905;28;20034;-52
2022/07/02 09:26:24;;;;;;;5.65;2.95;;;;;;;26.46;18.90;100362.69;5032101;28;20034;-50
2022/07/02 09:29:01;;;;;;;8.63;3.35;;;;;;;26.51;18.54;100362.88;5031552;28;20061;-52
2022/07/02 09:31:27;;;;;;;7.60;3.30;;;;;;;26.11;19.33;100303.41;5030799;28;20172;-53
2022/07/02 09:33:53;;;;;;;5.30;3.15;;;;;;;26.45;19.14;100341.78;5031938;28;20063;-51
2022/07/02 09:36:19;;;;;;;7.88;3.33;;;;;;;26.47;18.56;100345.97;5032120;28;20030;-51
2022/07/02 09:38:47;;;;;;;5.75;3.05;;;;;;;26.46;19.07;100349.78;5031641;28;20029;-56
2022/07/02 09:41:14;;;;;;;4.00;2.60;;;;;;;26.43;18.02;100341.97;5031596;28;20041;-56
2022/07/02 09:43:41;;;;;;;4.55;2.80;;;;;;;26.29;18.50;100329.38;5030998;28;20405;-51
2022/07/02 09:46:18;;;;;;;4.32;2.80;;;;;;;26.46;18.21;100327.81;5031959;28;20041;-56
2022/07/02 09:48:46;;;;;;;4.95;2.83;;;;;;;26.40;18.26;100322.34;5031655;28;20025;-53
2022/07/02 09:51:11;;;;;;;7.93;2.78;;;;;;;26.40;18.27;100317.72;5031088;28;20099;-55
2022/07/02 09:54:08;;;;;;;5.15;3.30;;;;;;;26.58;17.89;100329.91;5031636;28;20033;-55
2022/07/02 09:56:34;;;;;;;5.18;2.85;;;;;;;26.42;18.36;100314.75;5026766;28;20450;-53
2022/07/02 09:58:59;;;;;;;5.38;2.88;;;;;;;26.44;18.79;100309.88;5030608;28;20096;-54
2022/07/02 10:01:25;;;;;;;5.85;3.10;;;;;;;26.43;19.19;100305.47;5031199;28;20033;-51
2022/07/02 10:03:53;;;;;;;6.20;2.97;;;;;;;26.62;18.59;100303.69;5031223;28;20036;-52
2022/07/02 10:06:19;;;;;;;5.05;3.35;;;;;;;26.70;18.97;100311.66;5031328;28;20044;-49
2022/07/02 10:08:45;;;;;;;4.05;3.30;;;;;;;26.70;18.86;100295.19;5030643;28;20033;-55
2022/07/02 10:11:14;;;;;;;5.50;3.13;;;;;;;26.77;19.09;100300.63;5029208;28;20163;-52
2022/07/02 10:13:40;;;;;;;5.60;2.95;;;;;;;26.73;18.77;100300.22;5031371;28;20030;-54
2022/07/02 10:16:17;;;;;;;4.03;2.90;;;;;;;26.83;18.66;100301.69;5031094;28;20029;-54
2022/07/02 10:18:43;;;;;;;3.33;2.67;;;;;;;26.76;18.30;100299.78;5030393;28;20394;-54
2022/07/02 10:21:14;;;;;;;7.05;3.17;;;;;;;26.82;17.88;100284.34;5030430;28;20037;-53
2022/07/02 10:23:42;;;;;;;4.05;2.83;;;;;;;26.70;18.54;100278.69;5031510;28;20108;-54
2022/07/02 10:26:08;;;;;;;5.20;2.80;;;;;;;26.57;18.95;100278.78;5031583;28;20835;-51
2022/07/02 10:28:34;;;;;;;5.30;3.20;;;;;;;26.58;19.37;100280.47;5030805;28;20107;-52
2022/07/02 10:31:00;;;;;;;5.93;3.17;;;;;;;26.49;19.17;100277.13;5031139;28;20044;-54
2022/07/02 10:33:25;;;;;;;2.92;2.63;;;;;;;26.50;19.28;100276.91;5031943;28;20037;-53
2022/07/02 10:35:52;;;;;;;6.30;2.92;;;;;;;26.51;19.10;100270.34;5031245;28;20041;-54
2022/07/02 10:38:56;;;;;;;5.85;2.70;;;;;;;26.69;18.94;100270.69;5030569;28;20029;-51
2022/07/02 10:41:30;;;;;;;5.15;2.85;;;;;;;26.66;19.75;100274.72;5027033;28;20108;-50
2022/07/02 10:43:57;;;;;;;3.28;2.97;;;;;;;26.60;19.10;100264.63;5029747;28;20492;-49
2022/07/02 10:46:25;;;;;;;4.45;3.08;;;;;;;26.73;19.04;100272.75;5030405;28;20026;-51
2022/07/02 10:48:53;;;;;;;7.10;2.70;;;;;;;26.93;18.65;100263.59;5029989;28;20038;-49
2022/07/02 10:51:22;;;;;;;5.25;2.65;;;;;;;27.12;18.66;100259.00;5030614;28;20029;-49
2022/07/02 10:53:56;;;;;;;3.08;2.40;;;;;;;27.29;17.89;100253.81;5030582;28;20029;-52
2022/07/02 10:56:23;;;;;;;5.45;2.55;;;;;;;27.29;18.29;100255.72;5030099;28;20030;-55
2022/07/02 10:58:48;;;;;;;8.07;2.60;;;;;;;27.16;18.00;100248.41;5029747;28;20022;-55
2022/07/02 11:01:17;;;;;;;2.75;2.47;;;;;;;27.11;18.21;100251.00;5029886;28;20041;-55
2022/07/02 11:03:58;;;;;;;5.13;2.70;;;;;;;27.18;17.82;100252.63;5030122;28;20033;-57
2022/07/02 11:06:26;;;;;;;5.03;2.72;;;;;;;27.03;18.09;100252.97;5030521;28;20044;-56
2022/07/02 11:08:58;;;;;;;4.07;2.50;;;;;;;27.04;18.36;100229.91;5029121;28;20048;-58
2022/07/02 11:11:32;;;;;;;5.85;2.80;;;;;;;27.01;18.73;100246.00;5010186;28;20121;-55
2022/07/02 11:13:57;;;;;;;6.40;2.50;;;;;;;26.89;18.50;100243.13;5011008;28;20099;-53
2022/07/02 11:16:29;;;;;;;4.10;2.38;;;;;;;26.94;18.75;100244.16;5010004;28;20469;-53
2022/07/02 11:18:58;;;;;;;6.90;2.63;;;;;;;26.94;18.97;100249.66;5022916;28;20426;-57
2022/07/02 11:21:24;;;;;;;3.35;2.75;;;;;;;26.88;18.69;100235.94;5030221;28;20220;-58
2022/07/02 11:23:50;;;;;;;3.30;2.58;;;;;;;26.87;19.13;100242.50;5030275;28;20033;-56
2022/07/02 11:26:21;;;;;;;6.55;3.00;;;;;;;26.92;19.55;100242.69;5029572;28;20414;-54
2022/07/02 11:28:47;;;;;;;4.90;2.92;;;;;;;26.90;19.67;100247.56;5024748;28;20470;-54